sensor_id;sensor_type;location;lat;lon;timestamp;pressure;altitude;pressure_sealevel;temperature;humidity
27210;BME280;14721;42.668;23.386;2023-08-30T00:17:35;94340.44;;;20.30;100.00
27210;BME280;14721;42.668;23.386;2023-08-30T00:20:45;94285.22;;;19.89;100.00
27210;BME280;14721;42.668;23.386;2023-08-30T00:24:29;94346.22;;;20.20;100.00
27210;BME280;14721;42.668;23.386;2023-08-30T00:27:10;94279.13;;;19.87;100.00
27210;BME280;14721;42.668;23.386;2023-08-30T00:30:02;94348.75;;;20.22;100.00
27210;BME280;14721;42.668;23.386;2023-08-30T00:32:50;94331.09;;;20.11;100.00
27210;BME280;14721;42.668;23.386;2023-08-30T00:35:40;94310.22;;;20.12;100.00
27210;BME280;14721;42.668;23.386;2023-08-30T00:38:37;94277.69;;;19.91;100.00
27210;BME280;14721;42.668;23.386;2023-08-30T01:00:09;94295.00;;;19.90;97.87
27210;BME280;14721;42.668;23.386;2023-08-30T01:03:21;94363.59;;;20.26;93.93
27210;BME280;14721;42.668;23.386;2023-08-30T01:14:50;94394.88;;;20.49;91.13
27210;BME280;14721;42.668;23.386;2023-08-30T01:17:28;94386.81;;;20.56;91.37
27210;BME280;14721;42.668;23.386;2023-08-30T01:20:11;94373.81;;;20.52;95.18
27210;BME280;14721;42.668;23.386;2023-08-30T01:29:29;94381.72;;;20.25;100.00
27210;BME280;14721;42.668;23.386;2023-08-30T01:31:56;94383.13;;;20.00;100.00
27210;BME280;14721;42.668;23.386;2023-08-30T01:34:29;94375.50;;;19.89;100.00
27210;BME280;14721;42.668;23.386;2023-08-30T01:36:56;94373.94;;;19.80;100.00
27210;BME280;14721;42.668;23.386;2023-08-30T01:39:23;94336.47;;;19.48;100.00
27210;BME280;14721;42.668;23.386;2023-08-30T01:41:53;94366.34;;;19.55;100.00
27210;BME280;14721;42.668;23.386;2023-08-30T01:44:30;94389.00;;;19.68;100.00
27210;BME280;14721;42.668;23.386;2023-08-30T01:46:58;94397.44;;;19.73;100.00
27210;BME280;14721;42.668;23.386;2023-08-30T01:49:24;94392.00;;;19.73;100.00
27210;BME280;14721;42.668;23.386;2023-08-30T01:56:59;94392.72;;;19.03;100.00
27210;BME280;14721;42.668;23.386;2023-08-30T01:59:29;94382.91;;;18.73;100.00
27210;BME280;14721;42.668;23.386;2023-08-30T02:01:57;94394.84;;;18.78;100.00
27210;BME280;14721;42.668;23.386;2023-08-30T02:04:23;94361.72;;;18.61;100.00
27210;BME280;14721;42.668;23.386;2023-08-30T02:07:24;94367.41;;;18.81;100.00
27210;BME280;14721;42.668;23.386;2023-08-30T02:21:23;94349.81;;;18.85;100.00
27210;BME280;14721;42.668;23.386;2023-08-30T02:30:20;94348.75;;;19.01;100.00
27210;BME280;14721;42.668;23.386;2023-08-30T02:32:49;94346.03;;;19.01;100.00
27210;BME280;14721;42.668;23.386;2023-08-30T02:35:43;94358.94;;;18.99;100.00
27210;BME280;14721;42.668;23.386;2023-08-30T02:40:51;94375.63;;;19.02;100.00
27210;BME280;14721;42.668;23.386;2023-08-30T02:43:36;94368.06;;;18.98;100.00
27210;BME280;14721;42.668;23.386;2023-08-30T02:46:12;94342.88;;;18.83;100.00
27210;BME280;14721;42.668;23.386;2023-08-30T02:49:08;94350.25;;;19.03;100.00
27210;BME280;14721;42.668;23.386;2023-08-30T02:51:48;94361.16;;;19.10;100.00
27210;BME280;14721;42.668;23.386;2023-08-30T02:54:34;94367.22;;;19.12;100.00
27210;BME280;14721;42.668;23.386;2023-08-30T02:57:02;94353.22;;;19.08;100.00
27210;BME280;14721;42.668;23.386;2023-08-30T02:59:28;94371.72;;;19.19;100.00
27210;BME280;14721;42.668;23.386;2023-08-30T03:01:55;94371.34;;;19.22;100.00
27210;BME280;14721;42.668;23.386;2023-08-30T03:04:21;94356.75;;;19.23;100.00
27210;BME280;14721;42.668;23.386;2023-08-30T03:06:50;94365.38;;;19.27;100.00
27210;BME280;14721;42.668;23.386;2023-08-30T03:09:16;94316.44;;;18.99;100.00
27210;BME280;14721;42.668;23.386;2023-08-30T03:11:43;94364.69;;;19.25;100.00
27210;BME280;14721;42.668;23.386;2023-08-30T03:14:09;94351.28;;;19.17;100.00
27210;BME280;14721;42.668;23.386;2023-08-30T03:16:34;94359.03;;;19.20;100.00
27210;BME280;14721;42.668;23.386;2023-08-30T03:19:00;94375.28;;;19.20;100.00
27210;BME280;14721;42.668;23.386;2023-08-30T03:21:28;94372.00;;;19.10;100.00
27210;BME280;14721;42.668;23.386;2023-08-30T03:23:54;94367.53;;;19.17;100.00
27210;BME280;14721;42.668;23.386;2023-08-30T03:26:19;94339.16;;;18.98;100.00
27210;BME280;14721;42.668;23.386;2023-08-30T03:28:50;94374.97;;;19.15;100.00
27210;BME280;14721;42.668;23.386;2023-08-30T03:31:17;94365.44;;;19.19;100.00
27210;BME280;14721;42.668;23.386;2023-08-30T03:33:43;94358.38;;;19.03;100.00
27210;BME280;14721;42.668;23.386;2023-08-30T03:36:13;94367.41;;;19.10;100.00
27210;BME280;14721;42.668;23.386;2023-08-30T03:38:39;94358.19;;;19.05;100.00
27210;BME280;14721;42.668;23.386;2023-08-30T03:41:08;94360.63;;;19.00;100.00
27210;BME280;14721;42.668;23.386;2023-08-30T03:43:34;94351.38;;;18.94;100.00
27210;BME280;14721;42.668;23.386;2023-08-30T03:46:00;94350.06;;;18.90;100.00
27210;BME280;14721;42.668;23.386;2023-08-30T03:48:31;94306.47;;;18.70;100.00
27210;BME280;14721;42.668;23.386;2023-08-30T03:50:58;94341.75;;;18.92;100.00
27210;BME280;14721;42.668;23.386;2023-08-30T03:53:29;94353.81;;;18.89;100.00
27210;BME280;14721;42.668;23.386;2023-08-30T03:55:56;94364.53;;;18.68;100.00
27210;BME280;14721;42.668;23.386;2023-08-30T03:58:22;94364.72;;;18.81;100.00
27210;BME280;14721;42.668;23.386;2023-08-30T04:00:50;94372.94;;;18.88;100.00
27210;BME280;14721;42.668;23.386;2023-08-30T04:03:16;94375.94;;;18.93;100.00
27210;BME280;14721;42.668;23.386;2023-08-30T04:05:42;94377.91;;;18.99;100.00
27210;BME280;14721;42.668;23.386;2023-08-30T04:08:08;94392.63;;;18.96;100.00
27210;BME280;14721;42.668;23.386;2023-08-30T04:10:38;94381.72;;;18.90;100.00
27210;BME280;14721;42.668;23.386;2023-08-30T04:13:14;94336.06;;;18.72;100.00
27210;BME280;14721;42.668;23.386;2023-08-30T04:15:44;94379.16;;;19.17;100.00
27210;BME280;14721;42.668;23.386;2023-08-30T04:18:13;94328.88;;;18.94;100.00
27210;BME280;14721;42.668;23.386;2023-08-30T04:20:52;94373.75;;;19.17;100.00
27210;BME280;14721;42.668;23.386;2023-08-30T04:23:34;94378.97;;;19.19;100.00
27210;BME280;14721;42.668;23.386;2023-08-30T04:25:59;94421.84;;;19.59;100.00
27210;BME280;14721;42.668;23.386;2023-08-30T04:28:25;94383.72;;;19.60;100.00
27210;BME280;14721;42.668;23.386;2023-08-30T04:31:21;94390.03;;;20.03;100.00
27210;BME280;14721;42.668;23.386;2023-08-30T04:33:47;94434.19;;;20.54;100.00
27210;BME280;14721;42.668;23.386;2023-08-30T04:36:25;94413.53;;;20.87;100.00
27210;BME280;14721;42.668;23.386;2023-08-30T04:38:53;94428.00;;;21.15;100.00
27210;BME280;14721;42.668;23.386;2023-08-30T04:41:32;94448.56;;;21.64;97.51
27210;BME280;14721;42.668;23.386;2023-08-30T04:47:53;94407.47;;;21.80;91.10
27210;BME280;14721;42.668;23.386;2023-08-30T04:50:18;94430.56;;;21.97;90.10
27210;BME280;14721;42.668;23.386;2023-08-30T04:52:44;94434.97;;;22.11;90.42
27210;BME280;14721;42.668;23.386;2023-08-30T04:55:10;94428.84;;;21.90;89.52
27210;BME280;14721;42.668;23.386;2023-08-30T04:57:35;94429.66;;;21.84;87.66
27210;BME280;14721;42.668;23.386;2023-08-30T05:00:12;94449.09;;;21.81;85.53
27210;BME280;14721;42.668;23.386;2023-08-30T05:02:43;94446.50;;;21.73;84.91
27210;BME280;14721;42.668;23.386;2023-08-30T05:05:16;94439.13;;;21.60;85.77
27210;BME280;14721;42.668;23.386;2023-08-30T05:07:50;94446.28;;;21.68;86.46
27210;BME280;14721;42.668;23.386;2023-08-30T05:10:37;94414.66;;;21.60;86.52
27210;BME280;14721;42.668;23.386;2023-08-30T05:13:05;94413.75;;;21.40;86.47
27210;BME280;14721;42.668;23.386;2023-08-30T05:15:36;94424.59;;;21.74;86.54
27210;BME280;14721;42.668;23.386;2023-08-30T05:18:11;94440.25;;;22.19;86.05
27210;BME280;14721;42.668;23.386;2023-08-30T05:20:57;94449.03;;;22.21;86.44
27210;BME280;14721;42.668;23.386;2023-08-30T05:23:22;94456.41;;;22.41;85.86
27210;BME280;14721;42.668;23.386;2023-08-30T05:25:48;94434.28;;;22.70;84.29
27210;BME280;14721;42.668;23.386;2023-08-30T05:28:27;94452.69;;;23.59;84.14
27210;BME280;14721;42.668;23.386;2023-08-30T05:30:52;94449.47;;;23.88;78.67
27210;BME280;14721;42.668;23.386;2023-08-30T05:33:18;94447.19;;;24.29;77.86
27210;BME280;14721;42.668;23.386;2023-08-30T05:35:46;94474.41;;;25.17;71.51
27210;BME280;14721;42.668;23.386;2023-08-30T05:38:18;94426.81;;;25.67;70.16
27210;BME280;14721;42.668;23.386;2023-08-30T05:43:56;94436.34;;;26.67;61.68
27210;BME280;14721;42.668;23.386;2023-08-30T05:47:12;94460.16;;;27.60;60.07
27210;BME280;14721;42.668;23.386;2023-08-30T05:53:17;94443.13;;;28.04;56.93
27210;BME280;14721;42.668;23.386;2023-08-30T05:55:46;94453.94;;;28.22;56.59
27210;BME280;14721;42.668;23.386;2023-08-30T05:58:12;94434.19;;;28.48;57.81
27210;BME280;14721;42.668;23.386;2023-08-30T06:00:45;94420.25;;;28.66;56.01
27210;BME280;14721;42.668;23.386;2023-08-30T06:11:47;94434.41;;;27.49;57.61
27210;BME280;14721;42.668;23.386;2023-08-30T06:14:13;94421.25;;;27.40;57.47
27210;BME280;14721;42.668;23.386;2023-08-30T06:17:07;94400.94;;;27.06;59.48
27210;BME280;14721;42.668;23.386;2023-08-30T06:33:08;94410.88;;;27.88;54.47
27210;BME280;14721;42.668;23.386;2023-08-30T06:49:02;94406.22;;;28.12;55.48
27210;BME280;14721;42.668;23.386;2023-08-30T06:52:50;94466.13;;;29.05;54.07
27210;BME280;14721;42.668;23.386;2023-08-30T06:55:11;94401.53;;;29.74;51.35
27210;BME280;14721;42.668;23.386;2023-08-30T06:58:02;94409.84;;;30.34;49.49
27210;BME280;14721;42.668;23.386;2023-08-30T07:00:45;94433.13;;;30.91;48.28
27210;BME280;14721;42.668;23.386;2023-08-30T07:06:20;94442.94;;;31.30;46.92
27210;BME280;14721;42.668;23.386;2023-08-30T07:09:06;94464.81;;;31.68;46.38
27210;BME280;14721;42.668;23.386;2023-08-30T07:11:41;94439.91;;;31.90;44.54
27210;BME280;14721;42.668;23.386;2023-08-30T07:14:07;94433.72;;;32.19;43.56
27210;BME280;14721;42.668;23.386;2023-08-30T07:16:33;94428.66;;;32.48;42.48
27210;BME280;14721;42.668;23.386;2023-08-30T07:18:58;94451.63;;;32.53;42.69
27210;BME280;14721;42.668;23.386;2023-08-30T07:21:24;94452.00;;;32.72;40.95
27210;BME280;14721;42.668;23.386;2023-08-30T07:23:50;94456.41;;;32.68;40.43
27210;BME280;14721;42.668;23.386;2023-08-30T07:26:18;94437.84;;;32.68;40.34
27210;BME280;14721;42.668;23.386;2023-08-30T07:28:51;94440.09;;;32.67;40.36
27210;BME280;14721;42.668;23.386;2023-08-30T07:31:17;94437.25;;;32.56;39.84
27210;BME280;14721;42.668;23.386;2023-08-30T07:33:44;94458.22;;;32.47;40.69
27210;BME280;14721;42.668;23.386;2023-08-30T07:36:12;94445.84;;;32.60;41.19
27210;BME280;14721;42.668;23.386;2023-08-30T07:38:38;94447.25;;;32.57;40.28
27210;BME280;14721;42.668;23.386;2023-08-30T07:41:03;94447.13;;;32.37;40.24
27210;BME280;14721;42.668;23.386;2023-08-30T07:43:30;94426.72;;;32.53;40.81
27210;BME280;14721;42.668;23.386;2023-08-30T07:45:55;94436.84;;;32.85;40.19
27210;BME280;14721;42.668;23.386;2023-08-30T07:48:24;94443.06;;;33.37;39.12
27210;BME280;14721;42.668;23.386;2023-08-30T07:50:51;94435.06;;;33.40;39.33
27210;BME280;14721;42.668;23.386;2023-08-30T07:53:17;94426.44;;;33.32;38.06
27210;BME280;14721;42.668;23.386;2023-08-30T07:55:42;94449.50;;;33.62;38.37
27210;BME280;14721;42.668;23.386;2023-08-30T07:58:13;94453.63;;;33.65;37.13
27210;BME280;14721;42.668;23.386;2023-08-30T08:00:38;94448.63;;;33.42;37.37
27210;BME280;14721;42.668;23.386;2023-08-30T08:03:04;94430.91;;;33.48;37.38
27210;BME280;14721;42.668;23.386;2023-08-30T08:05:33;94415.09;;;33.33;36.87
27210;BME280;14721;42.668;23.386;2023-08-30T08:08:00;94443.41;;;33.50;37.44
27210;BME280;14721;42.668;23.386;2023-08-30T08:10:28;94453.09;;;33.78;36.43
27210;BME280;14721;42.668;23.386;2023-08-30T08:12:56;94443.69;;;34.09;35.37
27210;BME280;14721;42.668;23.386;2023-08-30T08:15:23;94441.16;;;34.12;36.51
27210;BME280;14721;42.668;23.386;2023-08-30T08:17:52;94447.25;;;34.45;35.29
27210;BME280;14721;42.668;23.386;2023-08-30T08:20:18;94448.03;;;34.50;34.78
27210;BME280;14721;42.668;23.386;2023-08-30T08:22:44;94453.88;;;34.33;33.79
27210;BME280;14721;42.668;23.386;2023-08-30T08:25:10;94449.19;;;34.34;33.86
27210;BME280;14721;42.668;23.386;2023-08-30T08:27:36;94444.69;;;34.58;34.74
27210;BME280;14721;42.668;23.386;2023-08-30T08:30:05;94452.69;;;34.80;34.94
27210;BME280;14721;42.668;23.386;2023-08-30T08:32:31;94457.66;;;34.83;33.86
27210;BME280;14721;42.668;23.386;2023-08-30T08:35:04;94417.28;;;34.47;34.37
27210;BME280;14721;42.668;23.386;2023-08-30T08:37:41;94443.91;;;34.32;33.00
27210;BME280;14721;42.668;23.386;2023-08-30T08:40:16;94433.44;;;34.04;33.24
27210;BME280;14721;42.668;23.386;2023-08-30T08:42:42;94442.28;;;34.11;32.33
27210;BME280;14721;42.668;23.386;2023-08-30T08:45:11;94398.25;;;34.00;32.61
27210;BME280;14721;42.668;23.386;2023-08-30T08:47:50;94453.63;;;34.25;31.70
27210;BME280;14721;42.668;23.386;2023-08-30T08:50:16;94458.06;;;33.71;32.33
27210;BME280;14721;42.668;23.386;2023-08-30T08:52:42;94434.81;;;33.82;32.84
27210;BME280;14721;42.668;23.386;2023-08-30T08:55:08;94447.84;;;34.11;31.85
27210;BME280;14721;42.668;23.386;2023-08-30T08:57:37;94447.59;;;33.88;33.41
27210;BME280;14721;42.668;23.386;2023-08-30T09:00:18;94429.25;;;33.57;33.42
27210;BME280;14721;42.668;23.386;2023-08-30T09:03:01;94423.69;;;33.27;33.47
27210;BME280;14721;42.668;23.386;2023-08-30T09:05:33;94433.06;;;33.16;32.09
27210;BME280;14721;42.668;23.386;2023-08-30T09:08:00;94414.41;;;32.24;33.41
27210;BME280;14721;42.668;23.386;2023-08-30T09:10:36;94431.66;;;32.36;33.84
27210;BME280;14721;42.668;23.386;2023-08-30T09:13:01;94415.88;;;31.95;35.00
27210;BME280;14721;42.668;23.386;2023-08-30T09:15:36;94439.13;;;31.99;34.67
27210;BME280;14721;42.668;23.386;2023-08-30T09:18:20;94425.34;;;32.04;33.86
27210;BME280;14721;42.668;23.386;2023-08-30T09:20:45;94429.56;;;31.80;34.34
27210;BME280;14721;42.668;23.386;2023-08-30T09:23:21;94437.81;;;31.17;35.11
27210;BME280;14721;42.668;23.386;2023-08-30T09:25:54;94431.75;;;30.67;35.82
27210;BME280;14721;42.668;23.386;2023-08-30T09:28:22;94421.63;;;30.29;37.18
27210;BME280;14721;42.668;23.386;2023-08-30T09:34:04;94408.38;;;29.72;37.83
27210;BME280;14721;42.668;23.386;2023-08-30T09:36:53;94418.22;;;29.68;38.88
27210;BME280;14721;42.668;23.386;2023-08-30T09:40:09;94381.50;;;29.46;38.43
27210;BME280;14721;42.668;23.386;2023-08-30T09:49:54;94382.31;;;29.79;38.64
27210;BME280;14721;42.668;23.386;2023-08-30T09:52:41;94367.41;;;29.75;38.04
27210;BME280;14721;42.668;23.386;2023-08-30T09:58:56;94390.28;;;29.97;39.14
27210;BME280;14721;42.668;23.386;2023-08-30T10:02:03;94373.69;;;29.92;37.95
27210;BME280;14721;42.668;23.386;2023-08-30T10:11:19;94395.94;;;28.75;40.31
27210;BME280;14721;42.668;23.386;2023-08-30T10:14:09;94367.91;;;28.61;40.61
27210;BME280;14721;42.668;23.386;2023-08-30T10:38:32;94369.69;;;29.12;40.61
27210;BME280;14721;42.668;23.386;2023-08-30T10:41:10;94380.75;;;29.17;41.14
27210;BME280;14721;42.668;23.386;2023-08-30T10:43:49;94373.50;;;29.11;40.60
27210;BME280;14721;42.668;23.386;2023-08-30T10:46:16;94376.28;;;28.83;41.08
27210;BME280;14721;42.668;23.386;2023-08-30T10:48:42;94375.78;;;28.86;41.16
27210;BME280;14721;42.668;23.386;2023-08-30T10:51:56;94366.34;;;29.10;40.63
27210;BME280;14721;42.668;23.386;2023-08-30T10:54:23;94370.69;;;29.39;41.05
27210;BME280;14721;42.668;23.386;2023-08-30T10:59:21;94356.25;;;29.32;40.21
27210;BME280;14721;42.668;23.386;2023-08-30T11:01:47;94372.84;;;29.54;39.66
27210;BME280;14721;42.668;23.386;2023-08-30T11:04:17;94331.97;;;29.29;40.16
27210;BME280;14721;42.668;23.386;2023-08-30T11:06:47;94368.59;;;29.63;38.82
27210;BME280;14721;42.668;23.386;2023-08-30T11:09:21;94376.81;;;29.79;39.24
27210;BME280;14721;42.668;23.386;2023-08-30T11:11:50;94360.41;;;29.68;38.45
27210;BME280;14721;42.668;23.386;2023-08-30T11:14:16;94366.31;;;29.60;38.49
27210;BME280;14721;42.668;23.386;2023-08-30T11:16:42;94365.97;;;29.56;39.08
27210;BME280;14721;42.668;23.386;2023-08-30T11:19:10;94366.91;;;29.78;38.77
27210;BME280;14721;42.668;23.386;2023-08-30T11:21:38;94349.97;;;29.70;39.07
27210;BME280;14721;42.668;23.386;2023-08-30T11:24:07;94343.78;;;29.79;37.95
27210;BME280;14721;42.668;23.386;2023-08-30T11:26:33;94347.03;;;29.76;38.28
27210;BME280;14721;42.668;23.386;2023-08-30T11:29:11;94332.75;;;29.24;38.45
27210;BME280;14721;42.668;23.386;2023-08-30T11:31:36;94344.47;;;29.37;38.67
27210;BME280;14721;42.668;23.386;2023-08-30T11:34:05;94321.47;;;29.43;38.49
27210;BME280;14721;42.668;23.386;2023-08-30T11:36:39;94349.16;;;29.53;38.55
27210;BME280;14721;42.668;23.386;2023-08-30T11:39:06;94303.69;;;29.12;37.70
27210;BME280;14721;42.668;23.386;2023-08-30T11:41:32;94338.81;;;29.43;38.61
27210;BME280;14721;42.668;23.386;2023-08-30T11:43:59;94335.97;;;29.38;38.22
27210;BME280;14721;42.668;23.386;2023-08-30T11:46:25;94317.50;;;29.17;38.30
27210;BME280;14721;42.668;23.386;2023-08-30T11:48:51;94313.59;;;29.13;37.36
27210;BME280;14721;42.668;23.386;2023-08-30T11:51:18;94297.84;;;29.08;37.24
27210;BME280;14721;42.668;23.386;2023-08-30T11:53:47;94317.09;;;29.08;37.62
27210;BME280;14721;42.668;23.386;2023-08-30T11:56:18;94321.31;;;28.99;37.69
27210;BME280;14721;42.668;23.386;2023-08-30T11:58:51;94321.91;;;29.01;37.74
27210;BME280;14721;42.668;23.386;2023-08-30T12:01:20;94316.81;;;28.93;38.36
27210;BME280;14721;42.668;23.386;2023-08-30T12:07:05;94285.81;;;28.81;38.05
27210;BME280;14721;42.668;23.386;2023-08-30T12:09:32;94276.41;;;28.61;38.13
27210;BME280;14721;42.668;23.386;2023-08-30T12:12:12;94308.97;;;28.85;37.80
27210;BME280;14721;42.668;23.386;2023-08-30T12:14:38;94299.06;;;29.01;37.58
27210;BME280;14721;42.668;23.386;2023-08-30T12:17:04;94302.56;;;29.30;36.88
27210;BME280;14721;42.668;23.386;2023-08-30T12:19:31;94293.00;;;29.54;35.61
27210;BME280;14721;42.668;23.386;2023-08-30T12:22:08;94292.00;;;29.60;35.49
27210;BME280;14721;42.668;23.386;2023-08-30T12:24:46;94287.16;;;29.67;35.70
27210;BME280;14721;42.668;23.386;2023-08-30T12:27:14;94295.16;;;29.90;36.16
27210;BME280;14721;42.668;23.386;2023-08-30T12:29:40;94240.94;;;29.90;35.72
27210;BME280;14721;42.668;23.386;2023-08-30T12:32:07;94281.84;;;30.25;34.96
27210;BME280;14721;42.668;23.386;2023-08-30T12:34:33;94258.38;;;30.22;34.50
27210;BME280;14721;42.668;23.386;2023-08-30T12:36:59;94255.84;;;30.42;33.95
27210;BME280;14721;42.668;23.386;2023-08-30T12:39:27;94237.47;;;30.53;33.85
27210;BME280;14721;42.668;23.386;2023-08-30T12:41:52;94282.69;;;30.52;33.84
27210;BME280;14721;42.668;23.386;2023-08-30T12:44:21;94239.00;;;30.39;33.71
27210;BME280;14721;42.668;23.386;2023-08-30T12:46:46;94269.03;;;30.40;33.69
27210;BME280;14721;42.668;23.386;2023-08-30T12:49:12;94257.47;;;30.38;33.71
27210;BME280;14721;42.668;23.386;2023-08-30T12:51:37;94258.03;;;30.40;33.34
27210;BME280;14721;42.668;23.386;2023-08-30T12:54:05;94245.81;;;30.58;33.54
27210;BME280;14721;42.668;23.386;2023-08-30T12:56:31;94241.91;;;30.80;33.10
27210;BME280;14721;42.668;23.386;2023-08-30T12:59:07;94253.22;;;31.21;32.41
27210;BME280;14721;42.668;23.386;2023-08-30T13:01:33;94235.47;;;31.07;31.68
27210;BME280;14721;42.668;23.386;2023-08-30T13:03:58;94250.75;;;31.19;31.36
27210;BME280;14721;42.668;23.386;2023-08-30T13:06:25;94243.38;;;31.30;30.58
27210;BME280;14721;42.668;23.386;2023-08-30T13:08:51;94205.75;;;31.19;30.45
27210;BME280;14721;42.668;23.386;2023-08-30T13:11:17;94250.09;;;31.44;31.59
27210;BME280;14721;42.668;23.386;2023-08-30T15:02:10;94260.91;;;29.81;28.73
27210;BME280;14721;42.668;23.386;2023-08-30T15:05:10;94297.47;;;29.76;32.85
27210;BME280;14721;42.668;23.386;2023-08-30T15:08:35;94264.88;;;29.30;33.99
27210;BME280;14721;42.668;23.386;2023-08-30T15:11:57;94277.78;;;29.30;34.74
27210;BME280;14721;42.668;23.386;2023-08-30T15:25:26;94271.09;;;28.43;36.69
27210;BME280;14721;42.668;23.386;2023-08-30T15:28:13;94301.44;;;28.48;36.96
27210;BME280;14721;42.668;23.386;2023-08-30T15:31:14;94319.66;;;28.54;37.79
27210;BME280;14721;42.668;23.386;2023-08-30T15:37:36;94322.91;;;28.23;38.71
27210;BME280;14721;42.668;23.386;2023-08-30T15:43:27;94302.41;;;27.63;39.34
27210;BME280;14721;42.668;23.386;2023-08-30T15:46:24;94299.00;;;27.44;39.64
27210;BME280;14721;42.668;23.386;2023-08-30T15:52:15;94323.34;;;27.40;39.82
27210;BME280;14721;42.668;23.386;2023-08-30T15:58:03;94278.97;;;26.86;40.52
27210;BME280;14721;42.668;23.386;2023-08-30T16:00:39;94322.38;;;27.00;40.93
27210;BME280;14721;42.668;23.386;2023-08-30T16:03:12;94326.06;;;26.94;40.90
27210;BME280;14721;42.668;23.386;2023-08-30T16:05:40;94334.53;;;26.93;40.66
27210;BME280;14721;42.668;23.386;2023-08-30T16:08:06;94312.31;;;26.71;41.31
27210;BME280;14721;42.668;23.386;2023-08-30T16:13:29;94304.94;;;26.72;41.19
27210;BME280;14721;42.668;23.386;2023-08-30T16:15:57;94346.31;;;26.93;41.09
27210;BME280;14721;42.668;23.386;2023-08-30T16:18:22;94330.47;;;26.84;41.32
27210;BME280;14721;42.668;23.386;2023-08-30T16:20:49;94335.56;;;26.80;41.14
27210;BME280;14721;42.668;23.386;2023-08-30T16:23:15;94346.78;;;26.90;40.90
27210;BME280;14721;42.668;23.386;2023-08-30T16:25:40;94345.97;;;26.90;41.53
27210;BME280;14721;42.668;23.386;2023-08-30T16:28:06;94355.28;;;27.00;40.89
27210;BME280;14721;42.668;23.386;2023-08-30T16:30:34;94327.97;;;26.82;40.06
27210;BME280;14721;42.668;23.386;2023-08-30T16:33:08;94356.66;;;26.80;40.31
27210;BME280;14721;42.668;23.386;2023-08-30T16:35:39;94371.69;;;26.77;41.01
27210;BME280;14721;42.668;23.386;2023-08-30T16:38:04;94360.69;;;26.66;40.99
27210;BME280;14721;42.668;23.386;2023-08-30T16:40:37;94365.81;;;26.62;40.98
27210;BME280;14721;42.668;23.386;2023-08-30T16:43:03;94349.53;;;26.49;41.21
27210;BME280;14721;42.668;23.386;2023-08-30T16:45:31;94365.28;;;26.54;41.37
27210;BME280;14721;42.668;23.386;2023-08-30T16:47:59;94359.50;;;26.44;41.58
27210;BME280;14721;42.668;23.386;2023-08-30T16:50:25;94373.66;;;26.41;41.78
27210;BME280;14721;42.668;23.386;2023-08-30T16:52:53;94349.75;;;26.18;42.18
27210;BME280;14721;42.668;23.386;2023-08-30T16:55:18;94375.94;;;26.14;42.76
27210;BME280;14721;42.668;23.386;2023-08-30T16:57:57;94379.00;;;26.06;43.04
27210;BME280;14721;42.668;23.386;2023-08-30T17:00:22;94364.38;;;25.94;42.75
27210;BME280;14721;42.668;23.386;2023-08-30T17:06:04;94369.63;;;25.77;43.58
27210;BME280;14721;42.668;23.386;2023-08-30T17:08:40;94383.72;;;25.81;43.54
27210;BME280;14721;42.668;23.386;2023-08-30T17:14:26;94384.00;;;25.73;43.65
27210;BME280;14721;42.668;23.386;2023-08-30T17:17:12;94386.16;;;25.71;43.72
27210;BME280;14721;42.668;23.386;2023-08-30T17:19:47;94411.91;;;25.82;43.92
27210;BME280;14721;42.668;23.386;2023-08-30T17:45:47;94478.88;;;25.36;45.08
27210;BME280;14721;42.668;23.386;2023-08-30T18:06:28;94523.78;;;24.91;46.85
27210;BME280;14721;42.668;23.386;2023-08-30T18:19:35;94475.59;;;24.66;46.16
27210;BME280;14721;42.668;23.386;2023-08-30T18:26:26;94541.25;;;24.90;46.14
27210;BME280;14721;42.668;23.386;2023-08-30T18:29:24;94520.31;;;24.71;46.07
27210;BME280;14721;42.668;23.386;2023-08-30T18:32:12;94548.03;;;24.81;46.07
27210;BME280;14721;42.668;23.386;2023-08-30T18:38:11;94476.75;;;24.45;46.39
27210;BME280;14721;42.668;23.386;2023-08-30T18:41:13;94532.66;;;24.80;46.48
27210;BME280;14721;42.668;23.386;2023-08-30T18:48:03;94532.31;;;24.64;47.36
27210;BME280;14721;42.668;23.386;2023-08-30T19:16:03;94583.47;;;24.44;48.66
27210;BME280;14721;42.668;23.386;2023-08-30T19:19:19;94554.75;;;24.22;48.72
27210;BME280;14721;42.668;23.386;2023-08-30T19:35:53;94544.75;;;23.83;49.16
27210;BME280;14721;42.668;23.386;2023-08-30T19:42:03;94617.13;;;24.12;50.18
27210;BME280;14721;42.668;23.386;2023-08-30T19:45:05;94617.13;;;24.05;50.30
27210;BME280;14721;42.668;23.386;2023-08-30T19:48:19;94602.66;;;23.91;50.93
27210;BME280;14721;42.668;23.386;2023-08-30T19:54:08;94616.72;;;23.82;52.16
27210;BME280;14721;42.668;23.386;2023-08-30T20:00:06;94572.88;;;23.51;51.47
27210;BME280;14721;42.668;23.386;2023-08-30T20:02:38;94606.84;;;23.61;51.36
27210;BME280;14721;42.668;23.386;2023-08-30T20:05:04;94611.06;;;23.64;52.20
27210;BME280;14721;42.668;23.386;2023-08-30T20:07:34;94624.72;;;23.64;51.90
27210;BME280;14721;42.668;23.386;2023-08-30T20:10:05;94606.03;;;23.54;51.22
27210;BME280;14721;42.668;23.386;2023-08-30T20:12:31;94643.38;;;23.67;52.31
27210;BME280;14721;42.668;23.386;2023-08-30T20:15:08;94643.59;;;23.65;52.34
27210;BME280;14721;42.668;23.386;2023-08-30T20:17:46;94639.16;;;23.64;52.01
27210;BME280;14721;42.668;23.386;2023-08-30T20:20:11;94644.22;;;23.61;52.40
27210;BME280;14721;42.668;23.386;2023-08-30T20:22:39;94638.75;;;23.54;51.96
27210;BME280;14721;42.668;23.386;2023-08-30T20:25:16;94622.78;;;23.45;51.44
27210;BME280;14721;42.668;23.386;2023-08-30T20:27:55;94632.88;;;23.51;51.31
27210;BME280;14721;42.668;23.386;2023-08-30T20:30:22;94650.50;;;23.55;51.20